Language selection

My Weather Profile Weather Topics  | 

Hecate Strait - northern half: Past 24 Hour Conditions

 

Dixon Entrance Central - 46145

10:00 PM PDT 20 September 2021Buoy position: 54.22N 132.27W
Disclaimer

This table is a summary of hourly weather conditions for the past 24 hours.
Please note that these observations might not always be representative of weather conditions over their associated marine area.

Date / Time
(PDT)
Wind(knots) Wave height(m) Wave period(s) Pressure(kPa) Air tempC) Water tempC)
20 September 2021
22:00 SSE 10 gust 12 1.2 9.0 100.8 12 12
21:00 S 12 gust 13 1.2 18.0 100.7 13 12
20:00 SW 6 gust 12 1.1 18.0 100.7 13 12
19:00 S 8 gust 10 1.2 8.0 100.6 13 12
18:00 SSW 6 gust 8 1.2 10.0 100.6 13 11
17:00 SSW 4 gust 6 1.3 8.0 100.6 13 12
16:00 S 6 gust 10 1.3 7.0 100.6 13 11
15:00 SE 6 gust 8 1.4 10.0 100.5 12 11
14:00 SSE 8 gust 10 1.7 6.0 100.6 12 11
13:00 SSE 12 gust 13 1.9 7.0 100.6 12 12
12:00 SE 17 gust 22 2.0 7.0 100.5 12 11
11:00 SE 23 gust 27 2.1 7.0 100.5 12 12
10:00 SE 27 gust 37 2.3 6.0 100.6 12 11
9:00 SE 29 gust 35 2.6 6.0 100.7 12 12
8:00 SE 31 gust 39 2.2 5.0 100.8 11 12
7:00 SE 27 gust 35 2.2 10.0 100.9 12 12
6:00 ESE 25 gust 31 1.9 12.0 101.1 12 12
5:00 ESE 19 gust 25 1.8 10.0 101.2 12 12
4:00 ESE 16 gust 19 1.8 10.0 101.3 12 12
3:00 ESE 13 gust 17 1.9 11.0 101.4 12 12
2:00 ESE 12 gust 13 1.8 11.0 101.4 12 12
1:00 SE 10 gust 12 1.9 10.0 101.5 12 12
0:00 SSE 8 gust 10 1.7 11.0 101.5 12 12
19 September 2021
23:00 SSE 6 gust 8 1.5 10.0 101.5 12 12
22:00 SE 6 gust 8 2.0 12.0 101.5 12 12

Zoom-in to make a selection

Map of Pacific - North Coast marine weather areas Middle Nomad - 46004 South Nomad - 46036 Dixon Entrance Central - 46145 South Moresby - 46147 Nanakwa Shoal - 46181 North Hecate Strait - 46183 North Nomad - 46184 South Hecate Strait - 46185 West Sea Otter - 46204 West Dixon Entrance - 46205 East Dellwood - 46207 West Moresby - 46208 Sartine Island Cape St.James Kindakun Rocks Langara Island Masset Municipal Airport Rose Spit Sandspit Airport Bella Bella Airport Bella Coola Airport Bonilla Island Cathedral Point Cumshewa Island Grey Islet Holland Rock Lucy Islands Lightstation Prince Rupert Airport
Legend:
buoy Buoy
land station Land Station

Pacific - North Coast Area

Another Region

What we are doing

Date modified: